sensor_id;sensor_type;location;lat;lon;timestamp;P1;durP1;ratioP1;P2;durP2;ratioP2
8450;SDS011;4262;50.980;13.892;2023-04-12T03:32:55;14.90;;;7.80;;
8450;SDS011;4262;50.980;13.892;2023-04-12T03:35:22;12.10;;;7.17;;
8450;SDS011;4262;50.980;13.892;2023-04-12T03:37:50;19.80;;;7.80;;
8450;SDS011;4262;50.980;13.892;2023-04-12T03:40:17;15.83;;;7.10;;
8450;SDS011;4262;50.980;13.892;2023-04-12T03:42:53;17.40;;;8.20;;
8450;SDS011;4262;50.980;13.892;2023-04-12T03:45:20;16.23;;;8.23;;
8450;SDS011;4262;50.980;13.892;2023-04-12T03:47:51;18.53;;;7.77;;
8450;SDS011;4262;50.980;13.892;2023-04-12T03:50:20;15.40;;;8.40;;
8450;SDS011;4262;50.980;13.892;2023-04-12T03:52:54;14.90;;;8.20;;
8450;SDS011;4262;50.980;13.892;2023-04-12T03:55:26;14.80;;;7.70;;
8450;SDS011;4262;50.980;13.892;2023-04-12T03:57:55;16.17;;;9.37;;
8450;SDS011;4262;50.980;13.892;2023-04-12T04:00:26;18.23;;;7.17;;
8450;SDS011;4262;50.980;13.892;2023-04-12T04:03:05;11.73;;;7.10;;
8450;SDS011;4262;50.980;13.892;2023-04-12T04:05:41;15.60;;;7.73;;
8450;SDS011;4262;50.980;13.892;2023-04-12T04:08:10;14.97;;;7.93;;
8450;SDS011;4262;50.980;13.892;2023-04-12T04:10:56;12.27;;;7.40;;
8450;SDS011;4262;50.980;13.892;2023-04-12T04:13:29;13.10;;;7.17;;
8450;SDS011;4262;50.980;13.892;2023-04-12T04:16:03;14.53;;;7.27;;
8450;SDS011;4262;50.980;13.892;2023-04-12T04:18:31;14.20;;;7.50;;
8450;SDS011;4262;50.980;13.892;2023-04-12T04:21:01;13.80;;;7.37;;
8450;SDS011;4262;50.980;13.892;2023-04-12T04:23:31;11.90;;;7.40;;
8450;SDS011;4262;50.980;13.892;2023-04-12T04:26:04;12.70;;;7.60;;
8450;SDS011;4262;50.980;13.892;2023-04-12T04:28:37;13.70;;;8.10;;
8450;SDS011;4262;50.980;13.892;2023-04-12T04:31:07;13.60;;;8.03;;
8450;SDS011;4262;50.980;13.892;2023-04-12T04:33:38;15.07;;;7.53;;
8450;SDS011;4262;50.980;13.892;2023-04-12T04:36:09;13.77;;;7.90;;
8450;SDS011;4262;50.980;13.892;2023-04-12T04:38:42;13.90;;;7.43;;
8450;SDS011;4262;50.980;13.892;2023-04-12T04:41:20;13.83;;;7.97;;
8450;SDS011;4262;50.980;13.892;2023-04-12T04:43:55;26.27;;;8.40;;
8450;SDS011;4262;50.980;13.892;2023-04-12T04:46:29;15.73;;;8.57;;
8450;SDS011;4262;50.980;13.892;2023-04-12T04:48:56;18.27;;;7.30;;
8450;SDS011;4262;50.980;13.892;2023-04-12T04:51:25;16.33;;;7.87;;
8450;SDS011;4262;50.980;13.892;2023-04-12T04:53:54;16.00;;;8.70;;
8450;SDS011;4262;50.980;13.892;2023-04-12T04:56:21;15.10;;;8.30;;
8450;SDS011;4262;50.980;13.892;2023-04-12T04:58:51;18.53;;;8.23;;
8450;SDS011;4262;50.980;13.892;2023-04-12T05:01:19;14.50;;;8.63;;
8450;SDS011;4262;50.980;13.892;2023-04-12T05:03:51;14.97;;;7.20;;
8450;SDS011;4262;50.980;13.892;2023-04-12T05:06:21;15.20;;;9.23;;
8450;SDS011;4262;50.980;13.892;2023-04-12T05:08:50;14.90;;;9.07;;
8450;SDS011;4262;50.980;13.892;2023-04-12T05:11:18;17.97;;;9.40;;
8450;SDS011;4262;50.980;13.892;2023-04-12T05:13:45;16.03;;;8.60;;
8450;SDS011;4262;50.980;13.892;2023-04-12T05:16:14;14.83;;;8.13;;
8450;SDS011;4262;50.980;13.892;2023-04-12T05:18:41;13.73;;;8.87;;
8450;SDS011;4262;50.980;13.892;2023-04-12T05:21:08;19.03;;;9.17;;
8450;SDS011;4262;50.980;13.892;2023-04-12T05:23:35;19.37;;;9.27;;
8450;SDS011;4262;50.980;13.892;2023-04-12T05:26:06;16.70;;;7.83;;
8450;SDS011;4262;50.980;13.892;2023-04-12T05:28:33;17.10;;;8.97;;
8450;SDS011;4262;50.980;13.892;2023-04-12T05:31:00;14.80;;;8.50;;
8450;SDS011;4262;50.980;13.892;2023-04-12T05:33:33;17.23;;;8.97;;
8450;SDS011;4262;50.980;13.892;2023-04-12T05:36:01;15.17;;;8.60;;
8450;SDS011;4262;50.980;13.892;2023-04-12T05:38:29;17.53;;;8.70;;
8450;SDS011;4262;50.980;13.892;2023-04-12T05:41:01;17.50;;;9.33;;
8450;SDS011;4262;50.980;13.892;2023-04-12T05:43:31;18.87;;;9.30;;
8450;SDS011;4262;50.980;13.892;2023-04-12T05:45:58;16.87;;;9.43;;
8450;SDS011;4262;50.980;13.892;2023-04-12T05:48:25;15.80;;;8.33;;
8450;SDS011;4262;50.980;13.892;2023-04-12T05:50:54;21.20;;;9.53;;
8450;SDS011;4262;50.980;13.892;2023-04-12T05:53:22;17.80;;;9.60;;
8450;SDS011;4262;50.980;13.892;2023-04-12T05:55:49;17.80;;;9.43;;
8450;SDS011;4262;50.980;13.892;2023-04-12T05:58:17;17.33;;;8.67;;
8450;SDS011;4262;50.980;13.892;2023-04-12T06:00:46;17.33;;;9.50;;
8450;SDS011;4262;50.980;13.892;2023-04-12T06:03:14;20.70;;;9.13;;
8450;SDS011;4262;50.980;13.892;2023-04-12T06:05:41;16.80;;;9.20;;
8450;SDS011;4262;50.980;13.892;2023-04-12T06:08:09;19.47;;;9.50;;
8450;SDS011;4262;50.980;13.892;2023-04-12T06:10:40;22.23;;;10.80;;
8450;SDS011;4262;50.980;13.892;2023-04-12T06:13:07;20.60;;;9.83;;
8450;SDS011;4262;50.980;13.892;2023-04-12T06:15:34;19.93;;;10.63;;
8450;SDS011;4262;50.980;13.892;2023-04-12T06:18:02;20.27;;;10.47;;
8450;SDS011;4262;50.980;13.892;2023-04-12T06:20:29;19.70;;;10.50;;
8450;SDS011;4262;50.980;13.892;2023-04-12T06:22:56;18.70;;;9.40;;
8450;SDS011;4262;50.980;13.892;2023-04-12T06:25:23;17.10;;;9.77;;
8450;SDS011;4262;50.980;13.892;2023-04-12T06:27:52;21.50;;;10.20;;
8450;SDS011;4262;50.980;13.892;2023-04-12T06:30:21;19.60;;;9.40;;
8450;SDS011;4262;50.980;13.892;2023-04-12T06:32:51;17.57;;;8.30;;
8450;SDS011;4262;50.980;13.892;2023-04-12T06:35:19;17.27;;;8.47;;
8450;SDS011;4262;50.980;13.892;2023-04-12T06:37:48;22.50;;;9.53;;
8450;SDS011;4262;50.980;13.892;2023-04-12T06:40:15;19.80;;;9.87;;
8450;SDS011;4262;50.980;13.892;2023-04-12T06:42:42;19.33;;;10.07;;
8450;SDS011;4262;50.980;13.892;2023-04-12T06:45:09;16.07;;;9.00;;
8450;SDS011;4262;50.980;13.892;2023-04-12T06:47:36;21.57;;;10.00;;
8450;SDS011;4262;50.980;13.892;2023-04-12T06:50:03;18.93;;;9.30;;
8450;SDS011;4262;50.980;13.892;2023-04-12T06:52:32;20.93;;;9.60;;
8450;SDS011;4262;50.980;13.892;2023-04-12T06:54:59;24.27;;;9.37;;
8450;SDS011;4262;50.980;13.892;2023-04-12T06:57:26;15.97;;;7.93;;
8450;SDS011;4262;50.980;13.892;2023-04-12T06:59:53;17.60;;;9.00;;
8450;SDS011;4262;50.980;13.892;2023-04-12T07:02:20;16.43;;;6.90;;
8450;SDS011;4262;50.980;13.892;2023-04-12T07:04:50;18.10;;;8.70;;
8450;SDS011;4262;50.980;13.892;2023-04-12T07:07:17;15.70;;;8.17;;
8450;SDS011;4262;50.980;13.892;2023-04-12T07:09:46;16.13;;;7.20;;
8450;SDS011;4262;50.980;13.892;2023-04-12T07:12:13;16.77;;;7.90;;
8450;SDS011;4262;50.980;13.892;2023-04-12T07:14:40;15.40;;;7.13;;
8450;SDS011;4262;50.980;13.892;2023-04-12T07:17:08;16.93;;;6.97;;
8450;SDS011;4262;50.980;13.892;2023-04-12T07:19:35;15.63;;;7.17;;
8450;SDS011;4262;50.980;13.892;2023-04-12T07:22:02;16.80;;;7.40;;
8450;SDS011;4262;50.980;13.892;2023-04-12T07:24:29;18.57;;;8.20;;
8450;SDS011;4262;50.980;13.892;2023-04-12T07:26:58;14.70;;;7.07;;
8450;SDS011;4262;50.980;13.892;2023-04-12T07:29:25;15.07;;;7.17;;
8450;SDS011;4262;50.980;13.892;2023-04-12T07:31:52;16.60;;;7.30;;
8450;SDS011;4262;50.980;13.892;2023-04-12T07:34:19;15.50;;;7.10;;
8450;SDS011;4262;50.980;13.892;2023-04-12T07:36:47;12.40;;;6.27;;
8450;SDS011;4262;50.980;13.892;2023-04-12T07:39:14;17.37;;;6.53;;
8450;SDS011;4262;50.980;13.892;2023-04-12T07:41:41;13.07;;;6.00;;
8450;SDS011;4262;50.980;13.892;2023-04-12T07:44:12;15.50;;;6.63;;
8450;SDS011;4262;50.980;13.892;2023-04-12T07:46:38;13.63;;;6.00;;
8450;SDS011;4262;50.980;13.892;2023-04-12T07:49:06;18.70;;;5.60;;
8450;SDS011;4262;50.980;13.892;2023-04-12T07:51:34;9.20;;;4.27;;
8450;SDS011;4262;50.980;13.892;2023-04-12T07:54:02;12.60;;;6.03;;
8450;SDS011;4262;50.980;13.892;2023-04-12T07:56:32;13.50;;;5.07;;
8450;SDS011;4262;50.980;13.892;2023-04-12T07:58:59;15.40;;;4.80;;
8450;SDS011;4262;50.980;13.892;2023-04-12T08:01:28;13.50;;;4.00;;
8450;SDS011;4262;50.980;13.892;2023-04-12T08:03:54;15.20;;;5.00;;
8450;SDS011;4262;50.980;13.892;2023-04-12T08:06:21;9.10;;;2.60;;
8450;SDS011;4262;50.980;13.892;2023-04-12T08:08:48;8.97;;;2.40;;
8450;SDS011;4262;50.980;13.892;2023-04-12T08:11:15;12.60;;;2.80;;
8450;SDS011;4262;50.980;13.892;2023-04-12T08:13:42;9.50;;;2.60;;
8450;SDS011;4262;50.980;13.892;2023-04-12T08:16:09;9.13;;;1.97;;
8450;SDS011;4262;50.980;13.892;2023-04-12T08:18:38;10.33;;;2.33;;
8450;SDS011;4262;50.980;13.892;2023-04-12T08:21:05;10.00;;;2.40;;
8450;SDS011;4262;50.980;13.892;2023-04-12T08:23:32;8.47;;;2.10;;
8450;SDS011;4262;50.980;13.892;2023-04-12T08:25:58;8.90;;;2.17;;
8450;SDS011;4262;50.980;13.892;2023-04-12T08:28:27;10.90;;;2.50;;
8450;SDS011;4262;50.980;13.892;2023-04-12T08:30:54;8.80;;;2.20;;
8450;SDS011;4262;50.980;13.892;2023-04-12T08:33:21;9.57;;;2.60;;
8450;SDS011;4262;50.980;13.892;2023-04-12T08:35:49;11.60;;;2.33;;
8450;SDS011;4262;50.980;13.892;2023-04-12T08:38:17;13.50;;;2.20;;
8450;SDS011;4262;50.980;13.892;2023-04-12T08:40:43;8.53;;;2.10;;
8450;SDS011;4262;50.980;13.892;2023-04-12T08:43:11;8.80;;;2.10;;
8450;SDS011;4262;50.980;13.892;2023-04-12T08:45:39;10.70;;;2.30;;
8450;SDS011;4262;50.980;13.892;2023-04-12T08:48:05;10.10;;;2.17;;
8450;SDS011;4262;50.980;13.892;2023-04-12T08:50:32;11.03;;;2.00;;
8450;SDS011;4262;50.980;13.892;2023-04-12T08:53:01;9.63;;;2.10;;
8450;SDS011;4262;50.980;13.892;2023-04-12T08:55:28;7.90;;;1.90;;
8450;SDS011;4262;50.980;13.892;2023-04-12T08:57:54;8.80;;;2.00;;
8450;SDS011;4262;50.980;13.892;2023-04-12T09:00:21;7.97;;;2.07;;
8450;SDS011;4262;50.980;13.892;2023-04-12T09:02:48;12.57;;;2.50;;
8450;SDS011;4262;50.980;13.892;2023-04-12T09:05:16;8.33;;;2.40;;
8450;SDS011;4262;50.980;13.892;2023-04-12T09:07:43;11.03;;;2.30;;
8450;SDS011;4262;50.980;13.892;2023-04-12T09:10:11;10.17;;;2.87;;
8450;SDS011;4262;50.980;13.892;2023-04-12T09:12:56;8.07;;;2.40;;
8450;SDS011;4262;50.980;13.892;2023-04-12T09:15:23;10.67;;;2.80;;
8450;SDS011;4262;50.980;13.892;2023-04-12T09:17:59;12.47;;;2.23;;
8450;SDS011;4262;50.980;13.892;2023-04-12T09:20:28;9.87;;;2.33;;
8450;SDS011;4262;50.980;13.892;2023-04-12T09:22:55;10.43;;;2.50;;
8450;SDS011;4262;50.980;13.892;2023-04-12T09:25:36;7.90;;;2.30;;
8450;SDS011;4262;50.980;13.892;2023-04-12T09:30:48;12.20;;;2.70;;
8450;SDS011;4262;50.980;13.892;2023-04-12T09:33:17;9.83;;;2.30;;
8450;SDS011;4262;50.980;13.892;2023-04-12T09:35:45;9.90;;;2.40;;
8450;SDS011;4262;50.980;13.892;2023-04-12T09:38:12;9.93;;;2.63;;
8450;SDS011;4262;50.980;13.892;2023-04-12T09:40:41;11.23;;;2.80;;
8450;SDS011;4262;50.980;13.892;2023-04-12T09:43:08;8.80;;;2.60;;
8450;SDS011;4262;50.980;13.892;2023-04-12T09:45:35;8.63;;;2.60;;
8450;SDS011;4262;50.980;13.892;2023-04-12T09:48:04;11.83;;;2.70;;
8450;SDS011;4262;50.980;13.892;2023-04-12T09:50:32;11.93;;;2.50;;
8450;SDS011;4262;50.980;13.892;2023-04-12T09:53:00;10.23;;;2.60;;
8450;SDS011;4262;50.980;13.892;2023-04-12T09:55:28;9.80;;;3.17;;
8450;SDS011;4262;50.980;13.892;2023-04-12T09:58:00;7.93;;;2.73;;
8450;SDS011;4262;50.980;13.892;2023-04-12T10:00:29;11.60;;;2.20;;
8450;SDS011;4262;50.980;13.892;2023-04-12T10:02:58;10.47;;;2.57;;
8450;SDS011;4262;50.980;13.892;2023-04-12T10:05:26;10.60;;;3.00;;
8450;SDS011;4262;50.980;13.892;2023-04-12T10:07:57;12.20;;;2.40;;
8450;SDS011;4262;50.980;13.892;2023-04-12T10:10:28;8.60;;;2.50;;
8450;SDS011;4262;50.980;13.892;2023-04-12T10:12:55;9.73;;;2.60;;
8450;SDS011;4262;50.980;13.892;2023-04-12T10:15:26;13.93;;;2.60;;
8450;SDS011;4262;50.980;13.892;2023-04-12T10:17:59;11.40;;;2.80;;
8450;SDS011;4262;50.980;13.892;2023-04-12T10:20:27;11.63;;;3.07;;
8450;SDS011;4262;50.980;13.892;2023-04-12T10:22:54;12.93;;;3.00;;
8450;SDS011;4262;50.980;13.892;2023-04-12T10:25:24;11.40;;;2.10;;
8450;SDS011;4262;50.980;13.892;2023-04-12T10:27:55;12.50;;;2.70;;
8450;SDS011;4262;50.980;13.892;2023-04-12T10:30:24;8.73;;;2.60;;
8450;SDS011;4262;50.980;13.892;2023-04-12T10:33:11;10.20;;;2.33;;
8450;SDS011;4262;50.980;13.892;2023-04-12T10:38:24;8.90;;;2.03;;
8450;SDS011;4262;50.980;13.892;2023-04-12T10:41:12;10.23;;;2.67;;
8450;SDS011;4262;50.980;13.892;2023-04-12T10:43:40;8.10;;;2.10;;
8450;SDS011;4262;50.980;13.892;2023-04-12T10:46:09;9.60;;;2.50;;
8450;SDS011;4262;50.980;13.892;2023-04-12T10:49:17;11.80;;;2.53;;
8450;SDS011;4262;50.980;13.892;2023-04-12T10:54:38;8.93;;;2.43;;
8450;SDS011;4262;50.980;13.892;2023-04-12T10:57:06;11.80;;;3.00;;
8450;SDS011;4262;50.980;13.892;2023-04-12T11:00:16;10.57;;;2.60;;
8450;SDS011;4262;50.980;13.892;2023-04-12T11:05:55;11.57;;;3.27;;
8450;SDS011;4262;50.980;13.892;2023-04-12T11:08:55;9.13;;;3.33;;
8450;SDS011;4262;50.980;13.892;2023-04-12T11:11:23;11.57;;;3.33;;
8450;SDS011;4262;50.980;13.892;2023-04-12T11:13:53;11.87;;;3.17;;
8450;SDS011;4262;50.980;13.892;2023-04-12T11:16:21;11.37;;;3.00;;
8450;SDS011;4262;50.980;13.892;2023-04-12T11:18:51;10.47;;;3.83;;
8450;SDS011;4262;50.980;13.892;2023-04-12T11:21:19;9.90;;;3.23;;
8450;SDS011;4262;50.980;13.892;2023-04-12T11:23:46;13.53;;;4.47;;
8450;SDS011;4262;50.980;13.892;2023-04-12T11:26:17;14.83;;;4.57;;
8450;SDS011;4262;50.980;13.892;2023-04-12T11:28:46;11.37;;;4.10;;
8450;SDS011;4262;50.980;13.892;2023-04-12T11:31:18;12.23;;;4.47;;
8450;SDS011;4262;50.980;13.892;2023-04-12T11:33:45;12.83;;;4.30;;
8450;SDS011;4262;50.980;13.892;2023-04-12T11:36:13;10.87;;;4.20;;
8450;SDS011;4262;50.980;13.892;2023-04-12T11:38:42;14.00;;;3.87;;
8450;SDS011;4262;50.980;13.892;2023-04-12T11:41:10;15.03;;;4.97;;
8450;SDS011;4262;50.980;13.892;2023-04-12T11:43:37;10.10;;;3.43;;
8450;SDS011;4262;50.980;13.892;2023-04-12T11:46:04;15.93;;;4.80;;
8450;SDS011;4262;50.980;13.892;2023-04-12T11:48:32;13.70;;;4.03;;
8450;SDS011;4262;50.980;13.892;2023-04-12T11:53:51;15.63;;;4.70;;
8450;SDS011;4262;50.980;13.892;2023-04-12T11:56:18;9.80;;;3.83;;
8450;SDS011;4262;50.980;13.892;2023-04-12T11:58:46;15.90;;;3.90;;
8450;SDS011;4262;50.980;13.892;2023-04-12T12:01:13;10.50;;;3.10;;
8450;SDS011;4262;50.980;13.892;2023-04-12T12:03:41;11.67;;;3.50;;
8450;SDS011;4262;50.980;13.892;2023-04-12T12:06:08;11.10;;;3.80;;
8450;SDS011;4262;50.980;13.892;2023-04-12T12:08:37;9.77;;;3.30;;
8450;SDS011;4262;50.980;13.892;2023-04-12T12:11:05;10.07;;;4.10;;
8450;SDS011;4262;50.980;13.892;2023-04-12T12:13:42;11.73;;;3.80;;
8450;SDS011;4262;50.980;13.892;2023-04-12T12:16:10;11.63;;;3.97;;
8450;SDS011;4262;50.980;13.892;2023-04-12T12:18:38;11.40;;;3.57;;
8450;SDS011;4262;50.980;13.892;2023-04-12T12:21:07;12.90;;;3.60;;
8450;SDS011;4262;50.980;13.892;2023-04-12T12:23:34;14.93;;;2.97;;
8450;SDS011;4262;50.980;13.892;2023-04-12T12:26:02;12.40;;;3.10;;
8450;SDS011;4262;50.980;13.892;2023-04-12T12:28:35;13.30;;;3.30;;
8450;SDS011;4262;50.980;13.892;2023-04-12T12:31:04;11.20;;;2.63;;
8450;SDS011;4262;50.980;13.892;2023-04-12T12:33:35;8.17;;;2.40;;
8450;SDS011;4262;50.980;13.892;2023-04-12T12:36:02;8.60;;;2.40;;
8450;SDS011;4262;50.980;13.892;2023-04-12T12:38:33;12.93;;;2.70;;
8450;SDS011;4262;50.980;13.892;2023-04-12T12:41:13;12.70;;;2.90;;
8450;SDS011;4262;50.980;13.892;2023-04-12T12:43:44;9.43;;;2.90;;
8450;SDS011;4262;50.980;13.892;2023-04-12T12:46:11;9.70;;;2.43;;
8450;SDS011;4262;50.980;13.892;2023-04-12T12:48:38;8.83;;;2.57;;
8450;SDS011;4262;50.980;13.892;2023-04-12T12:51:06;11.20;;;2.83;;
8450;SDS011;4262;50.980;13.892;2023-04-12T12:53:34;14.00;;;2.60;;
8450;SDS011;4262;50.980;13.892;2023-04-12T12:56:00;10.20;;;2.80;;
8450;SDS011;4262;50.980;13.892;2023-04-12T12:58:28;10.20;;;2.97;;
8450;SDS011;4262;50.980;13.892;2023-04-12T13:00:55;12.87;;;3.03;;
8450;SDS011;4262;50.980;13.892;2023-04-12T13:03:22;9.97;;;3.03;;
8450;SDS011;4262;50.980;13.892;2023-04-12T13:05:49;10.30;;;2.60;;
8450;SDS011;4262;50.980;13.892;2023-04-12T13:08:18;11.67;;;2.53;;
8450;SDS011;4262;50.980;13.892;2023-04-12T13:10:45;8.43;;;2.17;;
8450;SDS011;4262;50.980;13.892;2023-04-12T13:13:12;8.37;;;2.27;;
8450;SDS011;4262;50.980;13.892;2023-04-12T13:15:40;9.33;;;2.40;;
8450;SDS011;4262;50.980;13.892;2023-04-12T13:18:25;9.33;;;2.63;;
8450;SDS011;4262;50.980;13.892;2023-04-12T13:20:52;11.73;;;2.60;;
8450;SDS011;4262;50.980;13.892;2023-04-12T13:23:19;9.70;;;2.30;;
8450;SDS011;4262;50.980;13.892;2023-04-12T13:25:45;8.70;;;2.20;;
8450;SDS011;4262;50.980;13.892;2023-04-12T13:28:13;9.00;;;2.27;;
8450;SDS011;4262;50.980;13.892;2023-04-12T13:30:42;9.80;;;2.40;;
8450;SDS011;4262;50.980;13.892;2023-04-12T13:33:10;10.03;;;1.90;;
8450;SDS011;4262;50.980;13.892;2023-04-12T13:35:37;9.13;;;2.33;;
8450;SDS011;4262;50.980;13.892;2023-04-12T13:38:03;8.60;;;2.47;;
8450;SDS011;4262;50.980;13.892;2023-04-12T13:40:31;8.70;;;2.23;;
8450;SDS011;4262;50.980;13.892;2023-04-12T13:42:58;12.80;;;2.10;;
8450;SDS011;4262;50.980;13.892;2023-04-12T13:45:25;12.10;;;2.60;;
8450;SDS011;4262;50.980;13.892;2023-04-12T13:47:53;10.43;;;2.53;;
8450;SDS011;4262;50.980;13.892;2023-04-12T13:50:20;11.50;;;2.17;;
8450;SDS011;4262;50.980;13.892;2023-04-12T13:52:46;8.57;;;2.03;;
8450;SDS011;4262;50.980;13.892;2023-04-12T13:55:13;10.27;;;2.53;;
8450;SDS011;4262;50.980;13.892;2023-04-12T13:57:40;8.00;;;2.00;;
8450;SDS011;4262;50.980;13.892;2023-04-12T14:00:08;11.47;;;2.20;;
8450;SDS011;4262;50.980;13.892;2023-04-12T14:02:36;10.33;;;2.03;;
8450;SDS011;4262;50.980;13.892;2023-04-12T14:05:04;10.50;;;2.10;;
8450;SDS011;4262;50.980;13.892;2023-04-12T14:07:32;14.60;;;2.20;;
8450;SDS011;4262;50.980;13.892;2023-04-12T14:10:00;9.23;;;1.70;;
8450;SDS011;4262;50.980;13.892;2023-04-12T14:12:27;8.20;;;2.00;;
8450;SDS011;4262;50.980;13.892;2023-04-12T14:14:54;9.50;;;2.67;;
8450;SDS011;4262;50.980;13.892;2023-04-12T14:17:21;10.93;;;2.30;;
8450;SDS011;4262;50.980;13.892;2023-04-12T14:19:48;9.20;;;2.40;;
8450;SDS011;4262;50.980;13.892;2023-04-12T14:22:17;9.50;;;2.00;;
8450;SDS011;4262;50.980;13.892;2023-04-12T14:24:44;7.80;;;2.03;;
8450;SDS011;4262;50.980;13.892;2023-04-12T14:27:11;8.90;;;2.13;;
8450;SDS011;4262;50.980;13.892;2023-04-12T14:29:38;10.50;;;2.57;;
8450;SDS011;4262;50.980;13.892;2023-04-12T14:32:05;10.67;;;2.63;;
8450;SDS011;4262;50.980;13.892;2023-04-12T14:34:31;9.13;;;1.63;;
8450;SDS011;4262;50.980;13.892;2023-04-12T14:36:58;13.10;;;2.50;;
8450;SDS011;4262;50.980;13.892;2023-04-12T14:39:28;10.70;;;2.57;;
8450;SDS011;4262;50.980;13.892;2023-04-12T14:41:57;9.57;;;2.80;;
8450;SDS011;4262;50.980;13.892;2023-04-12T14:44:24;13.40;;;3.37;;
8450;SDS011;4262;50.980;13.892;2023-04-12T14:46:51;10.77;;;1.97;;
8450;SDS011;4262;50.980;13.892;2023-04-12T14:49:19;10.00;;;2.57;;
8450;SDS011;4262;50.980;13.892;2023-04-12T14:51:46;10.50;;;2.90;;
8450;SDS011;4262;50.980;13.892;2023-04-12T14:54:13;10.87;;;2.80;;
8450;SDS011;4262;50.980;13.892;2023-04-12T14:56:41;11.00;;;2.90;;
8450;SDS011;4262;50.980;13.892;2023-04-12T14:59:09;14.53;;;2.50;;
8450;SDS011;4262;50.980;13.892;2023-04-12T15:01:36;9.30;;;2.80;;
8450;SDS011;4262;50.980;13.892;2023-04-12T15:04:03;11.00;;;3.03;;
8450;SDS011;4262;50.980;13.892;2023-04-12T15:06:30;14.37;;;2.97;;
8450;SDS011;4262;50.980;13.892;2023-04-12T15:09:01;11.80;;;3.17;;
8450;SDS011;4262;50.980;13.892;2023-04-12T15:11:30;13.43;;;3.13;;
8450;SDS011;4262;50.980;13.892;2023-04-12T15:14:01;13.10;;;3.53;;
8450;SDS011;4262;50.980;13.892;2023-04-12T15:16:28;12.13;;;3.50;;
8450;SDS011;4262;50.980;13.892;2023-04-12T15:18:56;9.80;;;3.00;;
8450;SDS011;4262;50.980;13.892;2023-04-12T15:21:23;13.20;;;3.60;;
8450;SDS011;4262;50.980;13.892;2023-04-12T15:23:50;10.23;;;3.10;;
8450;SDS011;4262;50.980;13.892;2023-04-12T15:26:19;10.00;;;3.47;;
8450;SDS011;4262;50.980;13.892;2023-04-12T15:28:47;10.40;;;3.33;;
8450;SDS011;4262;50.980;13.892;2023-04-12T15:31:15;13.77;;;2.90;;
8450;SDS011;4262;50.980;13.892;2023-04-12T15:33:42;11.60;;;3.33;;
8450;SDS011;4262;50.980;13.892;2023-04-12T15:36:10;11.40;;;4.43;;
8450;SDS011;4262;50.980;13.892;2023-04-12T15:38:39;9.63;;;3.23;;
8450;SDS011;4262;50.980;13.892;2023-04-12T15:41:08;9.33;;;3.60;;
8450;SDS011;4262;50.980;13.892;2023-04-12T15:43:35;13.67;;;4.00;;
8450;SDS011;4262;50.980;13.892;2023-04-12T15:46:02;10.87;;;4.00;;
8450;SDS011;4262;50.980;13.892;2023-04-12T15:48:31;12.70;;;4.13;;
8450;SDS011;4262;50.980;13.892;2023-04-12T15:51:00;9.53;;;3.90;;
8450;SDS011;4262;50.980;13.892;2023-04-12T15:53:27;14.60;;;4.07;;
8450;SDS011;4262;50.980;13.892;2023-04-12T15:55:53;10.07;;;3.80;;
8450;SDS011;4262;50.980;13.892;2023-04-12T15:58:20;12.37;;;4.70;;
8450;SDS011;4262;50.980;13.892;2023-04-12T16:00:49;13.13;;;4.03;;
8450;SDS011;4262;50.980;13.892;2023-04-12T16:03:18;14.20;;;4.50;;
8450;SDS011;4262;50.980;13.892;2023-04-12T16:05:48;10.17;;;4.53;;
8450;SDS011;4262;50.980;13.892;2023-04-12T16:08:17;12.40;;;4.73;;
8450;SDS011;4262;50.980;13.892;2023-04-12T16:10:46;11.23;;;3.90;;
8450;SDS011;4262;50.980;13.892;2023-04-12T16:13:13;11.90;;;4.00;;
8450;SDS011;4262;50.980;13.892;2023-04-12T16:15:39;11.23;;;4.27;;
8450;SDS011;4262;50.980;13.892;2023-04-12T16:18:06;10.60;;;4.00;;
8450;SDS011;4262;50.980;13.892;2023-04-12T16:20:35;11.47;;;4.03;;
8450;SDS011;4262;50.980;13.892;2023-04-12T16:23:03;8.03;;;3.50;;
8450;SDS011;4262;50.980;13.892;2023-04-12T16:25:31;9.23;;;3.17;;
8450;SDS011;4262;50.980;13.892;2023-04-12T16:27:59;12.70;;;3.90;;
8450;SDS011;4262;50.980;13.892;2023-04-12T16:30:27;9.00;;;3.60;;
8450;SDS011;4262;50.980;13.892;2023-04-12T16:32:53;10.43;;;3.40;;
8450;SDS011;4262;50.980;13.892;2023-04-12T16:35:20;9.90;;;3.53;;
8450;SDS011;4262;50.980;13.892;2023-04-12T16:37:47;12.60;;;3.77;;
8450;SDS011;4262;50.980;13.892;2023-04-12T16:40:15;10.00;;;3.30;;
8450;SDS011;4262;50.980;13.892;2023-04-12T16:42:42;9.33;;;3.13;;
8450;SDS011;4262;50.980;13.892;2023-04-12T16:45:10;11.63;;;3.63;;
8450;SDS011;4262;50.980;13.892;2023-04-12T16:47:39;8.70;;;3.43;;
8450;SDS011;4262;50.980;13.892;2023-04-12T16:50:06;11.07;;;3.53;;
8450;SDS011;4262;50.980;13.892;2023-04-12T16:52:33;11.90;;;3.47;;
8450;SDS011;4262;50.980;13.892;2023-04-12T16:55:02;9.47;;;2.83;;
8450;SDS011;4262;50.980;13.892;2023-04-12T16:57:30;12.43;;;3.07;;
8450;SDS011;4262;50.980;13.892;2023-04-12T16:59:58;9.37;;;3.27;;
8450;SDS011;4262;50.980;13.892;2023-04-12T17:02:25;8.77;;;3.30;;
8450;SDS011;4262;50.980;13.892;2023-04-12T17:04:51;7.90;;;3.00;;
8450;SDS011;4262;50.980;13.892;2023-04-12T17:07:18;8.80;;;3.20;;
8450;SDS011;4262;50.980;13.892;2023-04-12T17:09:45;10.20;;;3.10;;
8450;SDS011;4262;50.980;13.892;2023-04-12T17:12:11;9.67;;;2.97;;
8450;SDS011;4262;50.980;13.892;2023-04-12T17:14:39;10.30;;;3.00;;
8450;SDS011;4262;50.980;13.892;2023-04-12T17:17:06;9.47;;;3.00;;
8450;SDS011;4262;50.980;13.892;2023-04-12T17:19:33;12.37;;;3.17;;
8450;SDS011;4262;50.980;13.892;2023-04-12T17:22:00;10.23;;;3.00;;
8450;SDS011;4262;50.980;13.892;2023-04-12T17:24:27;7.80;;;2.80;;
8450;SDS011;4262;50.980;13.892;2023-04-12T17:26:53;8.27;;;2.53;;
8450;SDS011;4262;50.980;13.892;2023-04-12T17:29:22;8.10;;;2.77;;
8450;SDS011;4262;50.980;13.892;2023-04-12T17:31:50;8.23;;;3.00;;
8450;SDS011;4262;50.980;13.892;2023-04-12T17:34:16;10.87;;;3.50;;
8450;SDS011;4262;50.980;13.892;2023-04-12T17:36:43;10.40;;;3.17;;
8450;SDS011;4262;50.980;13.892;2023-04-12T17:39:10;8.53;;;3.30;;
8450;SDS011;4262;50.980;13.892;2023-04-12T17:41:38;9.60;;;3.20;;
8450;SDS011;4262;50.980;13.892;2023-04-12T17:44:05;8.03;;;2.70;;
8450;SDS011;4262;50.980;13.892;2023-04-12T17:46:32;10.37;;;3.57;;
8450;SDS011;4262;50.980;13.892;2023-04-12T17:49:02;9.93;;;3.13;;
8450;SDS011;4262;50.980;13.892;2023-04-12T17:51:30;8.53;;;3.40;;
8450;SDS011;4262;50.980;13.892;2023-04-12T17:53:57;13.90;;;5.77;;
8450;SDS011;4262;50.980;13.892;2023-04-12T17:56:24;9.83;;;3.60;;
8450;SDS011;4262;50.980;13.892;2023-04-12T17:58:51;8.57;;;3.50;;
8450;SDS011;4262;50.980;13.892;2023-04-12T18:01:19;8.20;;;3.67;;
8450;SDS011;4262;50.980;13.892;2023-04-12T18:03:45;8.93;;;3.60;;
8450;SDS011;4262;50.980;13.892;2023-04-12T18:06:14;11.70;;;3.30;;
8450;SDS011;4262;50.980;13.892;2023-04-12T18:08:42;10.80;;;3.60;;
8450;SDS011;4262;50.980;13.892;2023-04-12T18:11:11;10.50;;;4.07;;
8450;SDS011;4262;50.980;13.892;2023-04-12T18:13:37;8.70;;;3.73;;
8450;SDS011;4262;50.980;13.892;2023-04-12T18:16:05;9.67;;;3.50;;
8450;SDS011;4262;50.980;13.892;2023-04-12T18:18:32;10.77;;;3.67;;
8450;SDS011;4262;50.980;13.892;2023-04-12T18:21:01;9.17;;;3.73;;
8450;SDS011;4262;50.980;13.892;2023-04-12T18:23:29;13.47;;;3.30;;
8450;SDS011;4262;50.980;13.892;2023-04-12T18:25:57;9.57;;;3.07;;
8450;SDS011;4262;50.980;13.892;2023-04-12T18:28:25;9.13;;;2.87;;
8450;SDS011;4262;50.980;13.892;2023-04-12T18:30:53;9.93;;;3.30;;
8450;SDS011;4262;50.980;13.892;2023-04-12T18:33:20;8.33;;;2.70;;
8450;SDS011;4262;50.980;13.892;2023-04-12T18:35:47;9.63;;;3.60;;
8450;SDS011;4262;50.980;13.892;2023-04-12T18:38:15;8.37;;;3.27;;
8450;SDS011;4262;50.980;13.892;2023-04-12T18:40:45;9.50;;;2.80;;
8450;SDS011;4262;50.980;13.892;2023-04-12T18:43:12;9.93;;;2.97;;
8450;SDS011;4262;50.980;13.892;2023-04-12T18:45:39;10.03;;;3.07;;